createdAt,value
2023-03-29T00:02:13.268Z,-2.15
2023-03-29T00:04:40.784Z,-2.18
2023-03-29T00:07:08.279Z,-2.20
2023-03-29T00:09:35.267Z,-2.23
2023-03-29T00:12:03.266Z,-2.25
2023-03-29T00:14:30.961Z,-2.29
2023-03-29T00:16:58.682Z,-2.30
2023-03-29T00:19:25.975Z,-2.31
2023-03-29T00:21:53.057Z,-2.32
2023-03-29T00:24:20.750Z,-2.33
2023-03-29T00:26:48.134Z,-2.33
2023-03-29T00:29:15.511Z,-2.33
2023-03-29T00:31:45.398Z,-2.33
2023-03-29T00:34:12.445Z,-2.34
2023-03-29T00:36:39.822Z,-2.36
2023-03-29T00:39:07.729Z,-2.37
2023-03-29T00:41:35.388Z,-2.38
2023-03-29T00:44:04.351Z,-2.38
2023-03-29T00:46:34.248Z,-2.37
2023-03-29T00:49:08.201Z,-2.38
2023-03-29T00:51:37.959Z,-2.39
2023-03-29T00:54:14.079Z,-2.41
2023-03-29T00:56:43.862Z,-2.39
2023-03-29T00:59:22.284Z,-2.37
2023-03-29T01:02:02.913Z,-2.35
2023-03-29T01:04:59.848Z,-2.33
2023-03-29T01:07:57.550Z,-2.31
2023-03-29T01:10:40.079Z,-2.30
2023-03-29T01:13:38.885Z,-2.29
2023-03-29T01:16:10.057Z,-2.28
2023-03-29T01:18:38.070Z,-2.27
2023-03-29T01:21:43.639Z,-2.27
2023-03-29T01:24:10.600Z,-2.28
2023-03-29T01:26:51.462Z,-2.28
2023-03-29T01:29:41.514Z,-2.28
2023-03-29T01:32:13.407Z,-2.30
2023-03-29T01:34:48.386Z,-2.31
2023-03-29T01:37:28.341Z,-2.32
2023-03-29T01:39:55.186Z,-2.33
2023-03-29T01:42:39.736Z,-2.33
2023-03-29T01:45:21.349Z,-2.33
2023-03-29T01:48:00.536Z,-2.33
2023-03-29T01:50:40.050Z,-2.34
2023-03-29T01:53:24.158Z,-2.34
2023-03-29T01:56:05.116Z,-2.34
2023-03-29T01:58:36.144Z,-2.34
2023-03-29T02:01:09.253Z,-2.35
2023-03-29T02:03:41.715Z,-2.37
2023-03-29T02:06:12.554Z,-2.38
2023-03-29T02:08:41.126Z,-2.39
2023-03-29T02:11:08.655Z,-2.40
2023-03-29T02:13:36.261Z,-2.42
2023-03-29T02:16:08.909Z,-2.42
2023-03-29T02:18:35.760Z,-2.45
2023-03-29T02:21:03.065Z,-2.48
2023-03-29T02:23:34.814Z,-2.52
2023-03-29T02:26:03.322Z,-2.55
2023-03-29T02:28:31.216Z,-2.58
2023-03-29T02:31:47.341Z,-2.61
2023-03-29T02:34:26.195Z,-2.65
2023-03-29T02:36:58.288Z,-2.68
2023-03-29T02:39:28.985Z,-2.69
2023-03-29T02:41:56.622Z,-2.73
2023-03-29T02:44:27.262Z,-2.74
2023-03-29T02:46:58.574Z,-2.76
2023-03-29T02:49:25.601Z,-2.77
2023-03-29T02:51:55.485Z,-2.78
2023-03-29T02:54:25.981Z,-2.78
2023-03-29T02:56:59.322Z,-2.80
2023-03-29T02:59:26.768Z,-2.80
2023-03-29T03:01:53.957Z,-2.80
2023-03-29T03:04:21.669Z,-2.80
2023-03-29T03:06:49.058Z,-2.80
2023-03-29T03:09:16.585Z,-2.79
2023-03-29T03:11:45.256Z,-2.79
2023-03-29T03:14:12.344Z,-2.79
2023-03-29T03:16:39.444Z,-2.79
2023-03-29T03:19:06.884Z,-2.77
2023-03-29T03:21:34.542Z,-2.77
2023-03-29T03:24:01.421Z,-2.76
2023-03-29T03:26:29.387Z,-2.75
2023-03-29T03:28:56.891Z,-2.75
2023-03-29T03:31:54.168Z,-2.75
2023-03-29T03:34:40.152Z,-2.75
2023-03-29T03:37:07.250Z,-2.74
2023-03-29T03:39:34.830Z,-2.74
2023-03-29T03:42:05.858Z,-2.74
2023-03-29T03:44:38.893Z,-2.73
2023-03-29T03:47:16.338Z,-2.75
2023-03-29T03:49:43.385Z,-2.75
2023-03-29T03:52:11.322Z,-2.76
2023-03-29T03:54:38.486Z,-2.76
2023-03-29T03:57:32.571Z,-2.77
2023-03-29T03:59:59.619Z,-2.78
2023-03-29T04:02:39.902Z,-2.79
2023-03-29T04:05:08.244Z,-2.81
2023-03-29T04:07:38.163Z,-2.82
2023-03-29T04:10:20.911Z,-2.81
2023-03-29T04:12:56.205Z,-2.83
2023-03-29T04:15:23.474Z,-2.87
2023-03-29T04:18:00.097Z,-2.91
2023-03-29T04:20:34.079Z,-2.97
2023-03-29T04:23:01.315Z,-3.01
2023-03-29T04:25:28.961Z,-3.06
2023-03-29T04:28:15.917Z,-3.10
2023-03-29T04:30:53.795Z,-3.14
2023-03-29T04:33:40.773Z,-3.18
2023-03-29T04:36:08.914Z,-3.19
2023-03-29T04:38:37.370Z,-3.15
2023-03-29T04:41:04.801Z,-3.10
2023-03-29T04:44:06.288Z,-3.02
2023-03-29T04:46:34.268Z,-2.95
2023-03-29T04:49:05.524Z,-2.89
2023-03-29T04:51:38.956Z,-2.81
2023-03-29T04:54:06.183Z,-2.76
2023-03-29T04:56:43.479Z,-2.69
2023-03-29T04:59:39.598Z,-2.60
2023-03-29T05:02:25.066Z,-2.52
2023-03-29T05:04:52.450Z,-2.42
2023-03-29T05:07:19.401Z,-2.34
2023-03-29T05:09:47.009Z,-2.23
2023-03-29T05:12:14.132Z,-2.13
2023-03-29T05:14:54.016Z,-2.02
2023-03-29T05:17:31.244Z,-1.93
2023-03-29T05:20:09.209Z,-1.83
2023-03-29T05:22:37.708Z,-1.74
2023-03-29T05:25:08.310Z,-1.67
2023-03-29T05:27:45.161Z,-1.59
2023-03-29T05:30:14.711Z,-1.51
2023-03-29T05:32:50.421Z,-1.43
2023-03-29T05:35:29.524Z,-1.33
2023-03-29T05:37:57.631Z,-1.25
2023-03-29T05:40:25.679Z,-1.16
2023-03-29T05:43:14.780Z,-1.02
2023-03-29T05:45:41.817Z,-0.91
2023-03-29T05:48:10.172Z,-0.78
2023-03-29T05:50:39.465Z,-0.65
2023-03-29T05:53:07.573Z,-0.56
2023-03-29T05:55:34.685Z,-0.48
2023-03-29T05:58:01.690Z,-0.33
2023-03-29T06:00:33.859Z,-0.17
2023-03-29T06:03:21.528Z,-0.04
2023-03-29T06:06:04.548Z,-0.05
2023-03-29T06:08:34.605Z,-0.15
2023-03-29T06:11:23.880Z,-0.31
2023-03-29T06:14:13.046Z,-0.40
2023-03-29T06:16:44.467Z,-0.41
2023-03-29T06:19:12.282Z,-0.36
2023-03-29T06:21:40.617Z,-0.24
2023-03-29T06:24:09.584Z,-0.11
2023-03-29T06:26:42.884Z,-0.02
2023-03-29T06:29:12.399Z,0.04
2023-03-29T06:31:40.297Z,0.09
2023-03-29T06:34:08.337Z,0.06
2023-03-29T06:36:55.899Z,-0.06
2023-03-29T06:39:24.970Z,-0.09
2023-03-29T06:42:20.779Z,-0.04
2023-03-29T06:45:08.252Z,-0.08
2023-03-29T06:47:36.591Z,-0.14
2023-03-29T06:50:03.881Z,-0.17
2023-03-29T06:52:45.819Z,-0.25
2023-03-29T06:55:13.760Z,-0.29
2023-03-29T06:57:49.720Z,-0.15
2023-03-29T07:00:37.169Z,-0.00
2023-03-29T07:03:29.480Z,0.01
2023-03-29T07:06:10.899Z,0.03
2023-03-29T07:08:46.276Z,0.03
2023-03-29T07:11:30.921Z,0.03
2023-03-29T07:14:05.293Z,-0.05
2023-03-29T07:16:32.917Z,-0.15
2023-03-29T07:19:25.558Z,-0.26
2023-03-29T07:22:17.162Z,-0.35
2023-03-29T07:24:55.277Z,-0.40
2023-03-29T07:27:27.785Z,-0.41
2023-03-29T07:29:58.781Z,-0.41
2023-03-29T07:32:29.850Z,-0.48
2023-03-29T07:35:13.214Z,-0.36
2023-03-29T07:37:45.779Z,-0.06
2023-03-29T07:40:27.324Z,0.28
2023-03-29T07:43:00.476Z,0.61
2023-03-29T07:45:42.484Z,0.85
2023-03-29T07:48:16.218Z,1.09
2023-03-29T07:51:17.800Z,1.33
2023-03-29T07:53:51.809Z,1.43
2023-03-29T07:56:36.231Z,1.40
2023-03-29T07:59:14.736Z,1.42
2023-03-29T08:01:46.197Z,1.38
2023-03-29T08:04:26.923Z,1.41
2023-03-29T08:07:20.518Z,1.51
2023-03-29T08:10:18.948Z,1.51
2023-03-29T08:13:13.542Z,1.48
2023-03-29T08:15:51.843Z,1.44
2023-03-29T08:18:28.536Z,1.41
2023-03-29T08:20:58.245Z,1.37
2023-03-29T08:23:36.403Z,1.39
2023-03-29T08:26:25.497Z,1.40
2023-03-29T08:28:54.890Z,1.35
2023-03-29T08:31:24.173Z,1.36
2023-03-29T08:33:53.521Z,1.29
2023-03-29T08:36:59.826Z,1.21
2023-03-29T08:39:47.215Z,1.29
2023-03-29T08:43:02.062Z,1.30
2023-03-29T08:46:18.087Z,1.28
2023-03-29T08:49:02.867Z,1.32
2023-03-29T08:52:07.069Z,1.30
2023-03-29T08:54:44.483Z,1.34
2023-03-29T08:57:43.535Z,1.50
2023-03-29T09:00:39.548Z,1.71
2023-03-29T09:03:21.002Z,2.06
2023-03-29T09:06:12.805Z,2.44
2023-03-29T09:08:48.042Z,2.72
2023-03-29T09:11:54.409Z,2.88
2023-03-29T09:15:02.130Z,2.80
2023-03-29T09:18:03.575Z,2.95
2023-03-29T09:21:17.209Z,3.25
2023-03-29T09:24:16.514Z,3.54
2023-03-29T09:27:05.266Z,3.82
2023-03-29T09:30:00.073Z,4.06
2023-03-29T09:32:58.381Z,4.19
2023-03-29T09:36:02.550Z,4.26
2023-03-29T09:38:31.595Z,4.38
2023-03-29T09:41:07.265Z,4.55
2023-03-29T09:43:40.839Z,4.63
2023-03-29T09:46:19.485Z,4.67
2023-03-29T09:48:49.334Z,4.85
2023-03-29T09:51:20.328Z,4.99
2023-03-29T09:53:48.976Z,5.06
2023-03-29T09:56:34.622Z,5.24
2023-03-29T09:59:12.151Z,5.44
2023-03-29T10:01:44.616Z,5.60
2023-03-29T10:04:13.311Z,5.79
2023-03-29T10:06:53.172Z,5.97
2023-03-29T10:09:24.137Z,6.11
2023-03-29T10:11:58.024Z,6.15
2023-03-29T10:14:42.777Z,6.21
2023-03-29T10:17:14.101Z,6.40
2023-03-29T10:19:57.714Z,6.53
2023-03-29T10:22:41.886Z,6.65
2023-03-29T10:25:13.196Z,6.78
2023-03-29T10:27:43.168Z,6.83
2023-03-29T10:30:18.238Z,6.94
2023-03-29T10:32:45.824Z,6.99
2023-03-29T10:35:25.575Z,6.93
2023-03-29T10:37:55.751Z,6.92
2023-03-29T10:40:32.698Z,6.68
2023-03-29T10:43:24.048Z,6.24
2023-03-29T10:45:57.856Z,6.14
2023-03-29T10:48:29.851Z,6.22
2023-03-29T10:51:01.678Z,6.19
2023-03-29T10:53:33.676Z,5.99
2023-03-29T10:56:13.758Z,5.76
2023-03-29T10:59:02.920Z,5.57
2023-03-29T11:01:52.714Z,5.63
2023-03-29T11:04:51.825Z,5.67
2023-03-29T11:07:47.964Z,5.91
2023-03-29T11:10:49.204Z,6.12
2023-03-29T11:13:37.496Z,6.32
2023-03-29T11:16:23.057Z,6.45
2023-03-29T11:19:37.891Z,6.44
2023-03-29T11:22:26.216Z,6.46
2023-03-29T11:24:55.894Z,6.69
2023-03-29T11:27:44.263Z,6.95
2023-03-29T11:30:56.480Z,7.03
2023-03-29T11:33:23.710Z,7.12
2023-03-29T11:36:09.733Z,7.36
2023-03-29T11:38:51.813Z,7.57
2023-03-29T11:41:20.223Z,7.75
2023-03-29T11:43:55.732Z,7.89
2023-03-29T11:46:28.255Z,7.90
2023-03-29T11:49:04.191Z,8.08
2023-03-29T11:52:13.650Z,8.27
2023-03-29T11:55:06.585Z,8.38
2023-03-29T11:57:52.110Z,8.37
2023-03-29T12:00:31.807Z,8.07
2023-03-29T12:03:12.468Z,7.93
2023-03-29T12:05:47.736Z,7.88
2023-03-29T12:08:29.106Z,7.86
2023-03-29T12:10:59.455Z,7.71
2023-03-29T12:14:04.952Z,7.53
2023-03-29T12:16:44.267Z,7.51
2023-03-29T12:19:35.359Z,7.55
2023-03-29T12:22:07.285Z,7.74
2023-03-29T12:24:40.669Z,7.90
2023-03-29T12:27:31.355Z,8.00
2023-03-29T12:30:21.092Z,7.91
2023-03-29T12:33:17.874Z,7.89
2023-03-29T12:36:09.176Z,8.00
2023-03-29T12:39:02.116Z,8.07
2023-03-29T12:41:51.310Z,8.16
2023-03-29T12:44:44.924Z,8.38
2023-03-29T12:47:24.092Z,8.58
2023-03-29T12:49:56.029Z,8.70
2023-03-29T12:52:41.283Z,8.68
2023-03-29T12:55:40.000Z,8.63
2023-03-29T12:58:21.029Z,8.57
2023-03-29T13:01:14.066Z,8.58
2023-03-29T13:03:48.915Z,8.73
2023-03-29T13:06:51.028Z,8.83
2023-03-29T13:09:21.567Z,8.86
2023-03-29T13:11:53.190Z,8.82
2023-03-29T13:14:24.012Z,8.73
2023-03-29T13:16:51.604Z,8.66
2023-03-29T13:19:32.892Z,8.64
2023-03-29T13:22:25.601Z,8.72
2023-03-29T13:25:05.555Z,8.84
2023-03-29T13:27:39.118Z,8.91
2023-03-29T13:30:20.319Z,8.93
2023-03-29T13:32:55.464Z,8.84
2023-03-29T13:35:41.477Z,8.66
2023-03-29T13:38:27.946Z,8.61
2023-03-29T13:41:01.728Z,8.68
2023-03-29T13:43:30.830Z,8.71
2023-03-29T13:45:57.799Z,8.72
2023-03-29T13:48:26.614Z,8.72
2023-03-29T13:50:57.037Z,8.72
2023-03-29T13:53:31.065Z,8.71
2023-03-29T13:55:59.047Z,8.68
2023-03-29T13:58:42.833Z,8.75
2023-03-29T14:01:28.595Z,8.67
2023-03-29T14:03:57.010Z,8.65
2023-03-29T14:06:31.104Z,8.62
2023-03-29T14:09:03.065Z,8.54
2023-03-29T14:11:30.633Z,8.48
2023-03-29T14:14:00.157Z,8.53
2023-03-29T14:16:31.126Z,8.64
2023-03-29T14:19:14.149Z,8.69
2023-03-29T14:21:43.530Z,8.54
2023-03-29T14:24:16.770Z,8.36
2023-03-29T14:26:46.653Z,8.28
2023-03-29T14:29:14.163Z,8.13
2023-03-29T14:31:42.112Z,8.08
2023-03-29T14:34:17.999Z,7.97
2023-03-29T14:36:48.344Z,7.74
2023-03-29T14:39:19.828Z,7.58
2023-03-29T14:41:52.404Z,7.51
2023-03-29T14:44:26.863Z,7.53
2023-03-29T14:46:55.410Z,7.56
2023-03-29T14:49:24.068Z,7.51
2023-03-29T14:51:52.634Z,7.36
2023-03-29T14:54:24.996Z,7.17
2023-03-29T14:56:53.283Z,7.01
2023-03-29T14:59:25.312Z,6.82
2023-03-29T15:01:52.935Z,6.74
2023-03-29T15:04:20.624Z,6.71
2023-03-29T15:06:50.145Z,6.68
2023-03-29T15:09:27.738Z,6.52
2023-03-29T15:11:57.279Z,6.24
2023-03-29T15:14:27.968Z,6.11
2023-03-29T15:17:04.437Z,6.00
2023-03-29T15:19:32.293Z,5.81
2023-03-29T15:22:10.589Z,5.70
2023-03-29T15:24:44.324Z,5.56
2023-03-29T15:27:19.391Z,5.45
2023-03-29T15:29:48.494Z,5.36
2023-03-29T15:32:24.241Z,5.26
2023-03-29T15:35:15.892Z,5.20
2023-03-29T15:37:43.108Z,5.22
2023-03-29T15:40:16.356Z,5.26
2023-03-29T15:42:43.630Z,5.27
2023-03-29T15:45:16.208Z,5.25
2023-03-29T15:47:43.646Z,5.19
2023-03-29T15:50:10.986Z,5.14
2023-03-29T15:52:38.059Z,5.01
2023-03-29T15:55:05.326Z,4.90
2023-03-29T15:57:32.339Z,4.76
2023-03-29T16:00:00.437Z,4.61
2023-03-29T16:02:27.947Z,4.48
2023-03-29T16:04:55.995Z,4.36
2023-03-29T16:07:22.884Z,4.22
2023-03-29T16:09:50.163Z,4.07
2023-03-29T16:12:17.179Z,3.97
2023-03-29T16:14:44.503Z,3.89
2023-03-29T16:17:12.490Z,3.80
2023-03-29T16:19:39.353Z,3.70
2023-03-29T16:22:06.830Z,3.61
2023-03-29T16:24:35.010Z,3.52
2023-03-29T16:27:03.170Z,3.42
2023-03-29T16:29:30.111Z,3.32
2023-03-29T16:31:57.356Z,3.24
2023-03-29T16:34:25.077Z,3.14
2023-03-29T16:36:53.962Z,3.06
2023-03-29T16:39:21.861Z,2.97
2023-03-29T16:41:49.556Z,2.92
2023-03-29T16:44:20.687Z,2.85
2023-03-29T16:46:50.970Z,2.79
2023-03-29T16:49:17.739Z,2.73
2023-03-29T16:51:46.357Z,2.67
2023-03-29T16:54:14.161Z,2.62
2023-03-29T16:56:46.992Z,2.57
2023-03-29T16:59:14.672Z,2.50
2023-03-29T17:01:41.961Z,2.44
2023-03-29T17:04:11.138Z,2.38
2023-03-29T17:06:38.106Z,2.31
2023-03-29T17:09:05.519Z,2.23
2023-03-29T17:11:32.908Z,2.14
2023-03-29T17:13:59.737Z,2.07
2023-03-29T17:16:28.156Z,2.02
2023-03-29T17:18:55.916Z,1.96
2023-03-29T17:21:23.003Z,1.91
2023-03-29T17:23:49.947Z,1.86
2023-03-29T17:26:16.856Z,1.82
2023-03-29T17:28:43.698Z,1.76
2023-03-29T17:31:10.891Z,1.69
2023-03-29T17:33:38.396Z,1.63
2023-03-29T17:36:06.062Z,1.57
2023-03-29T17:38:34.425Z,1.49
2023-03-29T17:41:03.966Z,1.41
2023-03-29T17:43:32.117Z,1.33
2023-03-29T17:46:00.278Z,1.24
2023-03-29T17:48:50.077Z,1.16
2023-03-29T17:51:23.118Z,1.06
2023-03-29T17:53:52.351Z,0.98
2023-03-29T17:56:19.967Z,0.90
2023-03-29T17:58:48.603Z,0.82
2023-03-29T18:01:38.481Z,0.74
2023-03-29T18:04:07.106Z,0.63
2023-03-29T18:06:34.306Z,0.57
2023-03-29T18:09:03.810Z,0.50
2023-03-29T18:11:35.800Z,0.42
2023-03-29T18:14:25.043Z,0.35
2023-03-29T18:17:14.600Z,0.27
2023-03-29T18:20:08.601Z,0.17
2023-03-29T18:22:36.038Z,0.10
2023-03-29T18:25:23.337Z,0.02
2023-03-29T18:27:54.246Z,-0.06
2023-03-29T18:30:23.498Z,-0.11
2023-03-29T18:32:50.825Z,-0.18
2023-03-29T18:35:19.280Z,-0.23
2023-03-29T18:37:47.232Z,-0.28
2023-03-29T18:40:21.992Z,-0.34
2023-03-29T18:42:49.922Z,-0.39
2023-03-29T18:45:17.622Z,-0.44
2023-03-29T18:47:44.906Z,-0.51
2023-03-29T18:50:12.759Z,-0.57
2023-03-29T18:52:43.393Z,-0.63
2023-03-29T18:55:12.176Z,-0.67
2023-03-29T18:57:49.122Z,-0.73
2023-03-29T19:00:17.118Z,-0.80
2023-03-29T19:02:44.575Z,-0.86
2023-03-29T19:05:14.519Z,-0.92
2023-03-29T19:07:41.915Z,-0.98
2023-03-29T19:10:10.017Z,-1.04
2023-03-29T19:12:39.625Z,-1.12
2023-03-29T19:15:08.303Z,-1.19
2023-03-29T19:17:35.518Z,-1.26
2023-03-29T19:20:06.096Z,-1.34
2023-03-29T19:22:33.499Z,-1.42
2023-03-29T19:25:01.295Z,-1.49
2023-03-29T19:27:28.568Z,-1.56
2023-03-29T19:29:55.801Z,-1.61
2023-03-29T19:32:22.855Z,-1.66
2023-03-29T19:34:50.510Z,-1.72
2023-03-29T19:37:18.961Z,-1.77
2023-03-29T19:39:56.591Z,-1.81
2023-03-29T19:42:23.896Z,-1.84
2023-03-29T19:44:52.393Z,-1.87
2023-03-29T19:47:19.404Z,-1.92
2023-03-29T19:49:46.469Z,-1.94
2023-03-29T19:52:14.143Z,-1.98
2023-03-29T19:54:41.923Z,-2.02
2023-03-29T19:57:11.863Z,-2.07
2023-03-29T19:59:40.519Z,-2.12
2023-03-29T20:02:12.466Z,-2.18
2023-03-29T20:04:40.398Z,-2.24
2023-03-29T20:07:12.986Z,-2.30
2023-03-29T20:09:44.623Z,-2.37
2023-03-29T20:12:19.999Z,-2.44
2023-03-29T20:14:47.081Z,-2.52
2023-03-29T20:17:14.176Z,-2.58
2023-03-29T20:19:45.008Z,-2.64
2023-03-29T20:22:12.523Z,-2.70
2023-03-29T20:24:40.212Z,-2.76
2023-03-29T20:27:09.270Z,-2.82
2023-03-29T20:29:38.668Z,-2.87
2023-03-29T20:32:05.877Z,-2.90
2023-03-29T20:34:38.689Z,-2.92
2023-03-29T20:37:12.264Z,-2.96
2023-03-29T20:39:53.836Z,-2.96
2023-03-29T20:42:23.898Z,-2.96
2023-03-29T20:44:53.233Z,-2.98
2023-03-29T20:47:22.867Z,-3.00
2023-03-29T20:49:59.924Z,-3.03
2023-03-29T20:52:28.217Z,-3.03
2023-03-29T20:54:57.605Z,-3.05
2023-03-29T20:57:25.433Z,-3.08
2023-03-29T20:59:53.190Z,-3.12
2023-03-29T21:02:26.154Z,-3.15
2023-03-29T21:04:53.523Z,-3.19
2023-03-29T21:07:26.080Z,-3.22
2023-03-29T21:09:53.672Z,-3.23
2023-03-29T21:12:23.769Z,-3.17
2023-03-29T21:14:51.663Z,-3.14
2023-03-29T21:17:19.181Z,-3.14
2023-03-29T21:19:46.258Z,-3.14
2023-03-29T21:22:14.000Z,-3.17
2023-03-29T21:24:41.714Z,-3.16
2023-03-29T21:27:09.434Z,-3.19
2023-03-29T21:29:38.297Z,-3.21
2023-03-29T21:32:07.955Z,-3.22
2023-03-29T21:34:35.273Z,-3.24
2023-03-29T21:37:03.325Z,-3.24
2023-03-29T21:39:31.405Z,-3.27
2023-03-29T21:41:59.805Z,-3.29
2023-03-29T21:44:28.186Z,-3.32
2023-03-29T21:46:57.027Z,-3.36
2023-03-29T21:49:24.145Z,-3.40
2023-03-29T21:51:52.259Z,-3.44
2023-03-29T21:54:21.079Z,-3.49
2023-03-29T21:56:49.473Z,-3.53
2023-03-29T21:59:17.452Z,-3.57
2023-03-29T22:01:45.402Z,-3.60
2023-03-29T22:04:22.789Z,-3.64
2023-03-29T22:07:03.190Z,-3.66
2023-03-29T22:09:34.336Z,-3.65
2023-03-29T22:12:03.064Z,-3.65
2023-03-29T22:14:51.041Z,-3.65
2023-03-29T22:17:19.171Z,-3.67
2023-03-29T22:19:49.103Z,-3.69
2023-03-29T22:22:26.530Z,-3.74
2023-03-29T22:25:03.565Z,-3.73
2023-03-29T22:27:32.180Z,-3.74
2023-03-29T22:30:01.133Z,-3.76
2023-03-29T22:32:30.529Z,-3.78
2023-03-29T22:35:10.588Z,-3.78
2023-03-29T22:37:45.835Z,-3.79
2023-03-29T22:40:13.547Z,-3.82
2023-03-29T22:43:05.355Z,-3.83
2023-03-29T22:45:36.465Z,-3.87
2023-03-29T22:48:08.820Z,-3.91
2023-03-29T22:50:59.166Z,-3.96
2023-03-29T22:53:39.406Z,-4.02
2023-03-29T22:56:08.608Z,-4.08
2023-03-29T22:58:39.233Z,-4.13
2023-03-29T23:01:08.284Z,-4.18
2023-03-29T23:03:40.594Z,-4.23
2023-03-29T23:06:24.977Z,-4.27
2023-03-29T23:08:57.733Z,-4.29
2023-03-29T23:11:44.131Z,-4.31
2023-03-29T23:14:22.324Z,-4.36
2023-03-29T23:16:49.893Z,-4.38
2023-03-29T23:19:23.412Z,-4.39
2023-03-29T23:21:52.392Z,-4.41
2023-03-29T23:24:21.832Z,-4.45
2023-03-29T23:26:50.297Z,-4.49
2023-03-29T23:29:41.839Z,-4.53
2023-03-29T23:32:33.326Z,-4.58
2023-03-29T23:35:21.109Z,-4.63
2023-03-29T23:38:11.242Z,-4.70
2023-03-29T23:41:12.611Z,-4.74
2023-03-29T23:44:03.029Z,-4.78
2023-03-29T23:46:33.466Z,-4.80
2023-03-29T23:49:20.184Z,-4.82
2023-03-29T23:51:49.894Z,-4.86
2023-03-29T23:54:17.305Z,-4.87
2023-03-29T23:57:00.697Z,-4.90
2023-03-29T23:59:52.984Z,-4.93
